createdAt,value
2022-11-05T00:01:44.889Z,3.43
2022-11-05T00:04:35.525Z,3.57
2022-11-05T00:07:26.000Z,3.80
2022-11-05T00:09:57.161Z,3.80
2022-11-05T00:12:42.836Z,3.67
2022-11-05T00:15:29.861Z,3.73
2022-11-05T00:17:58.128Z,4.00
2022-11-05T00:20:26.290Z,3.90
2022-11-05T00:23:15.162Z,3.70
2022-11-05T00:25:43.138Z,3.47
2022-11-05T00:28:11.150Z,3.93
2022-11-05T00:30:40.551Z,3.87
2022-11-05T00:33:08.804Z,2.90
2022-11-05T00:35:37.827Z,3.40
2022-11-05T00:38:05.841Z,4.00
2022-11-05T00:40:33.801Z,3.70
2022-11-05T00:43:19.069Z,4.20
2022-11-05T00:45:48.577Z,4.73
2022-11-05T00:48:36.493Z,3.93
2022-11-05T00:51:04.798Z,3.47
2022-11-05T00:53:33.209Z,4.47
2022-11-05T00:56:01.993Z,4.47
2022-11-05T00:58:30.142Z,4.13
2022-11-05T01:01:01.085Z,3.80
2022-11-05T01:03:31.157Z,3.83
2022-11-05T01:06:06.582Z,4.37
2022-11-05T01:08:34.665Z,3.70
2022-11-05T01:11:10.196Z,3.57
2022-11-05T01:13:39.103Z,3.87
2022-11-05T01:16:10.947Z,3.90
2022-11-05T01:18:40.092Z,3.50
2022-11-05T01:21:12.154Z,3.00
2022-11-05T01:23:40.197Z,4.00
2022-11-05T01:26:08.241Z,3.57
2022-11-05T01:28:36.331Z,3.30
2022-11-05T01:31:07.568Z,3.77
2022-11-05T01:33:38.252Z,3.40
2022-11-05T01:36:06.826Z,3.33
2022-11-05T01:38:34.901Z,4.03
2022-11-05T01:41:05.466Z,3.27
2022-11-05T01:43:47.346Z,3.77
2022-11-05T01:46:17.194Z,3.20
2022-11-05T01:48:49.449Z,3.03
2022-11-05T01:51:21.101Z,2.80
2022-11-05T01:53:53.949Z,3.33
2022-11-05T01:56:25.760Z,3.07
2022-11-05T01:58:57.831Z,3.47
2022-11-05T02:01:25.953Z,3.07
2022-11-05T02:04:00.567Z,3.60
2022-11-05T02:06:29.997Z,3.50
2022-11-05T02:09:02.846Z,2.90
2022-11-05T02:11:31.085Z,3.17
2022-11-05T02:13:59.074Z,2.83
2022-11-05T02:16:37.732Z,3.17
2022-11-05T02:19:24.209Z,2.60
2022-11-05T02:22:40.034Z,2.20
2022-11-05T02:25:41.826Z,2.60
2022-11-05T02:28:28.293Z,2.40
2022-11-05T02:31:03.101Z,2.30
2022-11-05T02:33:39.796Z,3.03
2022-11-05T02:36:32.316Z,2.40
2022-11-05T02:39:13.069Z,2.43
2022-11-05T02:41:49.190Z,1.90
2022-11-05T02:44:28.298Z,2.53
2022-11-05T02:47:04.714Z,2.60
2022-11-05T02:49:41.585Z,2.40
2022-11-05T02:52:17.035Z,2.70
2022-11-05T02:54:51.929Z,2.13
2022-11-05T02:57:21.905Z,2.40
2022-11-05T02:59:50.015Z,2.40
2022-11-05T03:02:19.510Z,2.10
2022-11-05T03:04:47.766Z,2.10
2022-11-05T03:07:32.158Z,2.33
2022-11-05T03:10:16.323Z,2.03
2022-11-05T03:12:53.183Z,3.07
2022-11-05T03:15:30.374Z,2.30
2022-11-05T03:18:08.525Z,3.03
2022-11-05T03:20:43.429Z,2.57
2022-11-05T03:23:20.183Z,2.40
2022-11-05T03:25:52.639Z,2.40
2022-11-05T03:28:25.419Z,2.50
2022-11-05T03:30:55.916Z,2.57
2022-11-05T03:33:30.489Z,2.63
2022-11-05T03:36:02.681Z,2.93
2022-11-05T03:38:34.937Z,2.57
2022-11-05T03:41:07.634Z,3.00
2022-11-05T03:43:38.549Z,2.50
2022-11-05T03:46:10.312Z,2.23
2022-11-05T03:48:42.699Z,2.80
2022-11-05T03:51:17.535Z,2.43
2022-11-05T03:53:49.201Z,2.53
2022-11-05T03:56:21.868Z,2.50
2022-11-05T03:58:54.667Z,2.67
2022-11-05T04:01:26.391Z,2.53
2022-11-05T04:03:55.897Z,2.20
2022-11-05T04:06:41.498Z,2.17
2022-11-05T04:09:28.871Z,2.90
2022-11-05T04:12:14.422Z,2.43
2022-11-05T04:14:44.179Z,2.43
2022-11-05T04:17:11.394Z,2.47
2022-11-05T04:19:59.919Z,2.40
2022-11-05T04:22:47.453Z,2.43
2022-11-05T04:25:17.268Z,2.90
2022-11-05T04:27:45.339Z,3.10
2022-11-05T04:30:19.736Z,2.70
2022-11-05T04:32:58.693Z,2.50
2022-11-05T04:35:28.866Z,3.40
2022-11-05T04:37:57.252Z,3.03
2022-11-05T04:40:25.457Z,2.63
2022-11-05T04:42:55.206Z,3.40
2022-11-05T04:45:23.696Z,3.10
2022-11-05T04:47:51.738Z,2.60
2022-11-05T04:50:22.118Z,3.10
2022-11-05T04:52:51.529Z,2.90
2022-11-05T04:55:21.162Z,2.87
2022-11-05T04:57:50.733Z,3.20
2022-11-05T05:00:19.520Z,3.90
2022-11-05T05:02:47.771Z,2.80
2022-11-05T05:05:16.001Z,3.20
2022-11-05T05:07:44.205Z,2.63
2022-11-05T05:10:14.010Z,2.80
2022-11-05T05:12:42.069Z,3.07
2022-11-05T05:15:10.386Z,2.90
2022-11-05T05:17:38.507Z,2.70
2022-11-05T05:20:24.418Z,3.37
2022-11-05T05:22:53.939Z,2.80
2022-11-05T05:25:24.081Z,3.10
2022-11-05T05:27:52.181Z,3.30
2022-11-05T05:30:20.284Z,3.03
2022-11-05T05:32:48.286Z,3.30
2022-11-05T05:35:16.560Z,3.20
2022-11-05T05:37:47.284Z,2.90
2022-11-05T05:40:15.511Z,4.00
2022-11-05T05:42:44.868Z,3.53
2022-11-05T05:45:13.473Z,3.40
2022-11-05T05:47:41.634Z,3.27
2022-11-05T05:50:09.772Z,2.63
2022-11-05T05:52:37.788Z,3.43
2022-11-05T05:55:06.371Z,3.20
2022-11-05T05:57:35.304Z,3.10
2022-11-05T06:00:05.989Z,3.93
2022-11-05T06:02:34.098Z,2.97
2022-11-05T06:05:02.285Z,3.90
2022-11-05T06:07:35.958Z,3.30
2022-11-05T06:10:05.916Z,4.23
2022-11-05T06:12:34.108Z,4.30
2022-11-05T06:15:02.119Z,3.67
2022-11-05T06:17:31.568Z,4.67
2022-11-05T06:19:59.537Z,4.33
2022-11-05T06:22:27.501Z,5.33
2022-11-05T06:24:55.584Z,5.90
2022-11-05T06:27:23.596Z,5.50
2022-11-05T06:29:51.814Z,5.23
2022-11-05T06:32:19.822Z,5.87
2022-11-05T06:34:49.241Z,6.50
2022-11-05T06:37:17.441Z,6.67
2022-11-05T06:39:45.532Z,6.33
2022-11-05T06:42:20.569Z,7.43
2022-11-05T06:44:48.537Z,7.50
2022-11-05T06:47:16.802Z,7.47
2022-11-05T06:49:44.873Z,7.60
2022-11-05T06:52:15.360Z,7.97
2022-11-05T06:54:44.169Z,8.90
2022-11-05T06:57:13.354Z,7.87
2022-11-05T06:59:41.580Z,7.90
2022-11-05T07:02:13.742Z,7.97
2022-11-05T07:04:42.069Z,9.20
2022-11-05T07:07:10.066Z,7.97
2022-11-05T07:09:42.950Z,8.10
2022-11-05T07:12:11.146Z,8.07
2022-11-05T07:14:39.321Z,8.63
2022-11-05T07:17:07.367Z,8.30
2022-11-05T07:19:35.551Z,8.80
2022-11-05T07:22:03.569Z,9.80
2022-11-05T07:24:31.570Z,9.47
2022-11-05T07:27:00.909Z,10.07
2022-11-05T07:29:28.982Z,10.73
2022-11-05T07:31:57.047Z,11.33
2022-11-05T07:34:25.013Z,10.00
2022-11-05T07:36:53.096Z,11.07
2022-11-05T07:39:21.191Z,10.33
2022-11-05T07:41:49.289Z,10.23
2022-11-05T07:44:18.684Z,9.53
2022-11-05T07:46:46.728Z,10.23
2022-11-05T07:49:15.150Z,10.77
2022-11-05T07:51:43.105Z,9.80
2022-11-05T07:54:11.498Z,10.57
2022-11-05T07:56:39.473Z,10.17
2022-11-05T07:59:07.668Z,10.40
2022-11-05T08:01:37.255Z,9.97
2022-11-05T08:04:05.691Z,10.00
2022-11-05T08:06:33.789Z,9.70
2022-11-05T08:09:01.797Z,9.67
2022-11-05T08:11:29.889Z,9.60
2022-11-05T08:13:58.141Z,10.00
2022-11-05T08:16:26.258Z,9.70
2022-11-05T08:18:55.663Z,9.50
2022-11-05T08:21:23.692Z,10.20
2022-11-05T08:23:51.854Z,9.97
2022-11-05T08:26:20.599Z,8.10
2022-11-05T08:28:48.593Z,8.60
2022-11-05T08:31:18.124Z,8.33
2022-11-05T08:33:46.105Z,8.03
2022-11-05T08:36:15.528Z,8.20
2022-11-05T08:38:43.532Z,8.90
2022-11-05T08:41:11.963Z,9.17
2022-11-05T08:43:40.446Z,8.90
2022-11-05T08:46:08.554Z,9.00
2022-11-05T08:48:36.610Z,9.07
2022-11-05T08:51:04.816Z,7.30
2022-11-05T08:53:34.138Z,9.13
2022-11-05T08:56:02.066Z,8.70
2022-11-05T08:58:30.019Z,9.67
2022-11-05T09:01:04.504Z,9.13
2022-11-05T09:03:33.088Z,9.13
2022-11-05T09:06:01.088Z,9.90
2022-11-05T09:08:29.054Z,8.27
2022-11-05T09:10:58.381Z,10.27
2022-11-05T09:13:26.959Z,10.87
2022-11-05T09:15:55.329Z,9.23
2022-11-05T09:18:23.421Z,10.10
2022-11-05T09:20:51.447Z,11.33
2022-11-05T09:23:19.640Z,10.40
2022-11-05T09:25:47.904Z,11.00
2022-11-05T09:28:19.982Z,11.70
2022-11-05T09:30:50.918Z,9.87
2022-11-05T09:33:21.298Z,10.90
2022-11-05T09:35:49.356Z,10.73
2022-11-05T09:38:17.377Z,11.37
2022-11-05T09:40:58.579Z,10.47
2022-11-05T09:43:33.574Z,9.93
2022-11-05T09:46:07.409Z,10.60
2022-11-05T09:48:36.345Z,9.83
2022-11-05T09:51:06.499Z,9.90
2022-11-05T09:53:41.469Z,11.57
2022-11-05T09:56:20.134Z,10.13
2022-11-05T09:58:53.382Z,10.93
2022-11-05T10:01:24.946Z,10.13
2022-11-05T10:03:57.490Z,10.30
2022-11-05T10:06:28.253Z,9.53
2022-11-05T10:09:03.953Z,10.23
2022-11-05T10:11:38.217Z,9.30
2022-11-05T10:14:15.578Z,8.20
2022-11-05T10:16:49.168Z,9.07
2022-11-05T10:19:24.357Z,9.17
2022-11-05T10:22:11.727Z,8.90
2022-11-05T10:24:42.678Z,7.07
2022-11-05T10:27:16.443Z,6.80
2022-11-05T10:29:46.932Z,8.03
2022-11-05T10:32:24.857Z,7.47
2022-11-05T10:34:55.150Z,7.60
2022-11-05T10:37:25.453Z,7.77
2022-11-05T10:39:54.048Z,7.73
2022-11-05T10:42:46.361Z,8.10
2022-11-05T10:45:26.633Z,6.43
2022-11-05T10:48:06.734Z,7.10
2022-11-05T10:50:35.311Z,7.90
2022-11-05T10:53:08.426Z,8.43
2022-11-05T10:55:38.553Z,7.27
2022-11-05T10:58:12.465Z,7.50
2022-11-05T11:00:43.554Z,7.90
2022-11-05T11:03:38.540Z,6.80
2022-11-05T11:06:14.130Z,8.20
2022-11-05T11:08:46.463Z,7.67
2022-11-05T11:11:28.308Z,7.30
2022-11-05T11:14:06.451Z,7.83
2022-11-05T11:16:39.623Z,7.50
2022-11-05T11:19:26.491Z,6.27
2022-11-05T11:22:14.264Z,8.17
2022-11-05T11:24:43.971Z,8.03
2022-11-05T11:27:15.774Z,7.80
2022-11-05T11:29:49.741Z,7.90
2022-11-05T11:32:22.820Z,6.90
2022-11-05T11:34:54.021Z,7.10
2022-11-05T11:37:26.755Z,6.90
2022-11-05T11:39:58.098Z,6.13
2022-11-05T11:42:31.689Z,5.60
2022-11-05T11:45:02.868Z,5.90
2022-11-05T11:47:33.788Z,6.57
2022-11-05T11:50:03.190Z,5.13
2022-11-05T11:52:33.188Z,6.20
2022-11-05T11:55:21.259Z,7.37
2022-11-05T11:57:51.343Z,4.60
2022-11-05T12:00:24.061Z,5.60
2022-11-05T12:03:04.444Z,4.70
2022-11-05T12:05:41.767Z,4.57
2022-11-05T12:08:36.919Z,3.87
2022-11-05T12:11:09.738Z,4.10
2022-11-05T12:14:04.427Z,4.20
2022-11-05T12:16:55.442Z,4.43
2022-11-05T12:19:37.714Z,5.87
2022-11-05T12:22:14.984Z,4.53
2022-11-05T12:25:05.520Z,4.97
2022-11-05T12:27:45.372Z,6.17
2022-11-05T12:30:16.748Z,6.20
2022-11-05T12:33:21.475Z,5.30
2022-11-05T12:36:03.549Z,4.37
2022-11-05T12:38:57.215Z,4.23
2022-11-05T12:41:28.913Z,5.20
2022-11-05T12:44:10.957Z,4.27
2022-11-05T12:46:47.137Z,4.57
2022-11-05T12:49:37.085Z,3.50
2022-11-05T12:52:22.945Z,3.80
2022-11-05T12:55:01.032Z,4.20
2022-11-05T12:57:30.846Z,3.37
2022-11-05T13:00:06.529Z,3.80
2022-11-05T13:02:41.745Z,4.47
2022-11-05T13:05:16.467Z,3.87
2022-11-05T13:07:53.913Z,3.60
2022-11-05T13:10:28.382Z,3.30
2022-11-05T13:13:02.159Z,3.50
2022-11-05T13:15:35.981Z,4.23
2022-11-05T13:18:07.468Z,4.50
2022-11-05T13:20:40.675Z,3.37
2022-11-05T13:23:19.977Z,3.60
2022-11-05T13:25:52.656Z,3.73
2022-11-05T13:28:32.665Z,4.30
2022-11-05T13:31:03.336Z,3.60
2022-11-05T13:33:34.956Z,3.03
2022-11-05T13:36:29.501Z,3.53
2022-11-05T13:39:07.181Z,3.77
2022-11-05T13:41:49.361Z,3.77
2022-11-05T13:44:45.079Z,3.87
2022-11-05T13:47:27.006Z,4.03
2022-11-05T13:50:21.589Z,4.03
2022-11-05T13:53:10.396Z,4.23
2022-11-05T13:55:53.342Z,3.97
2022-11-05T13:58:43.381Z,3.57
2022-11-05T14:01:19.067Z,3.77
2022-11-05T14:03:48.843Z,3.30
2022-11-05T14:06:25.544Z,4.57
2022-11-05T14:08:57.634Z,9.80
2022-11-05T14:11:30.246Z,7.40
2022-11-05T14:14:00.643Z,4.87
2022-11-05T14:16:41.296Z,14.17
2022-11-05T14:19:35.886Z,11.23
2022-11-05T14:22:38.902Z,7.87
2022-11-05T14:25:44.630Z,6.40
2022-11-05T14:28:42.553Z,5.10
2022-11-05T14:31:54.554Z,7.90
2022-11-05T14:34:40.157Z,4.47
2022-11-05T14:37:26.383Z,5.73
2022-11-05T14:39:55.763Z,9.37
2022-11-05T14:42:27.330Z,12.00
2022-11-05T14:45:05.817Z,13.90
2022-11-05T14:47:36.874Z,13.67
2022-11-05T14:50:11.547Z,12.57
2022-11-05T14:52:41.439Z,9.30
2022-11-05T14:55:27.972Z,10.37
2022-11-05T14:58:24.896Z,5.97
2022-11-05T15:00:55.116Z,5.43
2022-11-05T15:03:32.592Z,5.53
2022-11-05T15:06:29.435Z,4.70
2022-11-05T15:09:29.910Z,4.43
2022-11-05T15:12:13.648Z,6.33
2022-11-05T15:14:57.118Z,3.77
2022-11-05T15:17:30.151Z,4.53
2022-11-05T15:20:08.976Z,5.73
2022-11-05T15:22:44.789Z,6.87
2022-11-05T15:25:21.813Z,11.10
2022-11-05T15:28:03.029Z,13.23
2022-11-05T15:30:31.479Z,16.00
2022-11-05T15:33:17.761Z,12.70
2022-11-05T15:35:45.926Z,12.20
2022-11-05T15:38:31.459Z,12.97
2022-11-05T15:41:03.845Z,16.00
2022-11-05T15:43:32.042Z,16.00
2022-11-05T15:46:05.688Z,16.53
2022-11-05T15:48:36.904Z,15.70
2022-11-05T15:51:05.135Z,13.80
2022-11-05T15:53:51.522Z,14.60
2022-11-05T15:56:28.228Z,13.80
2022-11-05T15:59:00.986Z,19.53
2022-11-05T16:01:31.599Z,14.10
2022-11-05T16:04:09.506Z,14.23
2022-11-05T16:06:40.725Z,23.57
2022-11-05T16:09:20.465Z,28.90
2022-11-05T16:11:48.577Z,30.97
2022-11-05T16:14:18.693Z,27.50
2022-11-05T16:16:47.795Z,18.93
2022-11-05T16:19:42.379Z,13.13
2022-11-05T16:22:10.308Z,17.47
2022-11-05T16:24:40.064Z,13.43
2022-11-05T16:27:18.121Z,11.10
2022-11-05T16:29:53.452Z,9.77
2022-11-05T16:32:29.837Z,9.70
2022-11-05T16:35:02.559Z,14.47
2022-11-05T16:37:37.562Z,10.93
2022-11-05T16:40:14.363Z,8.00
2022-11-05T16:42:43.284Z,8.87
2022-11-05T16:45:13.949Z,8.90
2022-11-05T16:47:42.258Z,9.07
2022-11-05T16:50:32.404Z,10.10
2022-11-05T16:53:00.435Z,10.77
2022-11-05T16:55:28.514Z,8.53
2022-11-05T16:57:56.920Z,12.90
2022-11-05T17:00:26.346Z,11.70
2022-11-05T17:02:55.449Z,12.30
2022-11-05T17:05:26.526Z,12.13
2022-11-05T17:07:56.485Z,10.37
2022-11-05T17:10:25.965Z,10.90
2022-11-05T17:12:54.608Z,11.17
2022-11-05T17:15:25.445Z,12.13
2022-11-05T17:17:54.838Z,11.40
2022-11-05T17:20:39.928Z,10.57
2022-11-05T17:23:11.736Z,11.07
2022-11-05T17:25:40.905Z,11.33
2022-11-05T17:28:10.416Z,10.20
2022-11-05T17:30:41.413Z,8.13
2022-11-05T17:33:11.167Z,7.70
2022-11-05T17:35:40.418Z,9.23
2022-11-05T17:38:10.281Z,9.03
2022-11-05T17:40:39.540Z,9.73
2022-11-05T17:43:07.766Z,10.80
2022-11-05T17:45:35.886Z,8.63
2022-11-05T17:48:04.979Z,10.57
2022-11-05T17:50:32.978Z,9.63
2022-11-05T17:53:00.973Z,10.40
2022-11-05T17:55:30.406Z,9.40
2022-11-05T17:57:58.688Z,11.70
2022-11-05T18:00:26.826Z,10.30
2022-11-05T18:02:55.653Z,10.50
2022-11-05T18:05:27.738Z,11.70
2022-11-05T18:07:59.400Z,11.30
2022-11-05T18:10:28.281Z,11.17
2022-11-05T18:12:58.011Z,15.43
2022-11-05T18:15:27.918Z,14.40
2022-11-05T18:17:55.958Z,16.50
2022-11-05T18:20:24.190Z,13.83
2022-11-05T18:22:52.538Z,15.77
2022-11-05T18:25:20.739Z,19.10
2022-11-05T18:27:48.661Z,25.70
2022-11-05T18:30:18.243Z,20.20
2022-11-05T18:32:46.489Z,17.07
2022-11-05T18:35:14.826Z,22.67
2022-11-05T18:37:43.393Z,31.50
2022-11-05T18:40:12.863Z,34.30
2022-11-05T18:42:41.426Z,43.50
2022-11-05T18:45:10.901Z,30.83
2022-11-05T18:47:40.244Z,23.17
2022-11-05T18:50:10.544Z,31.63
2022-11-05T18:52:38.802Z,28.40
2022-11-05T18:55:08.105Z,26.63
2022-11-05T18:57:36.136Z,18.10
2022-11-05T19:00:05.487Z,23.70
2022-11-05T19:02:34.069Z,24.10
2022-11-05T19:07:51.694Z,23.57
2022-11-05T19:10:20.113Z,17.27
2022-11-05T19:12:48.254Z,12.70
2022-11-05T19:15:16.463Z,10.70
2022-11-05T19:17:44.598Z,12.07
2022-11-05T19:20:14.401Z,14.13
2022-11-05T19:22:43.442Z,12.57
2022-11-05T19:25:11.761Z,11.07
2022-11-05T19:27:41.034Z,10.63
2022-11-05T19:30:10.167Z,11.87
2022-11-05T19:32:38.202Z,10.73
2022-11-05T19:35:06.680Z,11.70
2022-11-05T19:37:36.100Z,10.97
2022-11-05T19:40:04.326Z,10.40
2022-11-05T19:42:32.305Z,10.70
2022-11-05T19:45:16.792Z,11.10
2022-11-05T19:47:48.238Z,10.63
2022-11-05T19:50:16.367Z,10.33
2022-11-05T19:52:45.750Z,8.77
2022-11-05T19:55:13.834Z,10.00
2022-11-05T19:57:41.808Z,11.50
2022-11-05T20:00:10.933Z,10.53
2022-11-05T20:02:39.128Z,10.17
2022-11-05T20:05:07.397Z,11.07
2022-11-05T20:07:35.535Z,10.67
2022-11-05T20:10:05.487Z,10.50
2022-11-05T20:12:34.369Z,11.40
2022-11-05T20:15:02.475Z,11.53
2022-11-05T20:17:31.077Z,12.90
2022-11-05T20:19:59.248Z,10.50
2022-11-05T20:22:27.990Z,10.80
2022-11-05T20:24:55.968Z,10.03
2022-11-05T20:27:25.319Z,9.77
2022-11-05T20:29:53.318Z,8.90
2022-11-05T20:32:21.329Z,10.43
2022-11-05T20:34:49.279Z,10.73
2022-11-05T20:37:17.282Z,10.60
2022-11-05T20:39:46.296Z,10.50
2022-11-05T20:42:14.534Z,10.43
2022-11-05T20:44:44.001Z,10.80
2022-11-05T20:47:12.104Z,11.77
2022-11-05T20:49:40.111Z,10.63
2022-11-05T20:52:08.126Z,10.53
2022-11-05T20:54:36.102Z,10.40
2022-11-05T20:57:04.158Z,10.80
2022-11-05T20:59:32.233Z,10.63
2022-11-05T21:02:02.835Z,10.80
2022-11-05T21:04:31.160Z,10.10
2022-11-05T21:06:59.210Z,9.20
2022-11-05T21:09:27.305Z,11.20
2022-11-05T21:12:14.212Z,11.73
2022-11-05T21:14:44.401Z,10.10
2022-11-05T21:17:14.343Z,10.60
2022-11-05T21:19:42.386Z,11.20
2022-11-05T21:22:10.409Z,11.03
2022-11-05T21:24:38.424Z,10.93
2022-11-05T21:27:06.421Z,10.70
2022-11-05T21:29:34.430Z,10.97
2022-11-05T21:32:02.529Z,10.30
2022-11-05T21:34:31.893Z,10.20
2022-11-05T21:37:00.035Z,10.27
2022-11-05T21:39:28.946Z,8.80
2022-11-05T21:41:57.274Z,9.00
2022-11-05T21:44:25.244Z,9.70
2022-11-05T21:46:56.453Z,10.60
2022-11-05T21:49:24.770Z,10.60
2022-11-05T21:52:11.893Z,10.77
2022-11-05T21:54:57.635Z,10.43
2022-11-05T21:57:43.200Z,9.73
2022-11-05T22:00:12.757Z,10.77
2022-11-05T22:02:41.050Z,10.43
2022-11-05T22:05:09.814Z,11.60
2022-11-05T22:07:40.678Z,10.00
2022-11-05T22:10:15.818Z,10.77
2022-11-05T22:12:45.079Z,10.70
2022-11-05T22:15:13.621Z,10.07
2022-11-05T22:17:46.454Z,11.67
2022-11-05T22:20:15.900Z,10.37
2022-11-05T22:22:45.687Z,11.40
2022-11-05T22:25:14.697Z,10.80
2022-11-05T22:27:43.798Z,10.50
2022-11-05T22:30:13.327Z,9.57
2022-11-05T22:32:41.338Z,10.63
2022-11-05T22:35:10.140Z,12.50
2022-11-05T22:37:38.238Z,12.90
2022-11-05T22:40:09.560Z,15.83
2022-11-05T22:42:37.893Z,13.97
2022-11-05T22:45:07.056Z,13.80
2022-11-05T22:47:35.124Z,12.67
2022-11-05T22:50:03.275Z,13.93
2022-11-05T22:52:31.253Z,13.60
2022-11-05T22:54:59.221Z,16.10
2022-11-05T22:57:28.648Z,15.73
2022-11-05T22:59:56.710Z,15.63
2022-11-05T23:02:24.982Z,11.90
2022-11-05T23:04:53.217Z,13.40
2022-11-05T23:07:38.638Z,11.70
2022-11-05T23:10:25.081Z,12.10
2022-11-05T23:12:56.315Z,12.77
2022-11-05T23:15:42.250Z,12.50
2022-11-05T23:18:28.494Z,12.23
2022-11-05T23:21:14.713Z,12.80
2022-11-05T23:24:01.571Z,12.83
2022-11-05T23:26:46.969Z,12.70
2022-11-05T23:29:16.430Z,13.80
2022-11-05T23:32:01.638Z,12.50
2022-11-05T23:34:29.629Z,14.37
2022-11-05T23:37:14.996Z,12.10
2022-11-05T23:39:43.141Z,12.50
2022-11-05T23:42:29.479Z,12.67
2022-11-05T23:45:16.538Z,13.30
2022-11-05T23:48:02.401Z,12.40
2022-11-05T23:50:35.557Z,13.17
2022-11-05T23:53:07.850Z,14.30
2022-11-05T23:55:36.098Z,13.13
2022-11-05T23:58:04.335Z,12.97
